createdAt,value
2019-05-22T00:00:03.452Z,2.30
2019-05-22T00:02:39.079Z,2.03
2019-05-22T00:05:20.228Z,1.93
2019-05-22T00:07:51.068Z,1.80
2019-05-22T00:10:32.950Z,1.90
2019-05-22T00:13:04.285Z,1.90
2019-05-22T00:15:38.404Z,2.23
2019-05-22T00:18:07.275Z,2.03
2019-05-22T00:20:37.357Z,2.17
2019-05-22T00:23:10.668Z,1.93
2019-05-22T00:25:40.941Z,2.13
2019-05-22T00:28:10.894Z,1.97
2019-05-22T00:30:44.431Z,2.10
2019-05-22T00:33:14.844Z,2.17
2019-05-22T00:35:45.434Z,2.10
2019-05-22T00:38:18.181Z,2.20
2019-05-22T00:40:55.139Z,2.10
2019-05-22T00:43:53.129Z,2.33
2019-05-22T00:46:24.563Z,1.90
2019-05-22T00:48:54.460Z,1.93
2019-05-22T00:51:43.472Z,1.97
2019-05-22T00:54:38.649Z,2.10
2019-05-22T00:57:26.855Z,1.90
2019-05-22T01:00:01.493Z,2.07
2019-05-22T01:02:34.186Z,1.80
2019-05-22T01:05:05.035Z,2.03
2019-05-22T01:07:40.194Z,2.23
2019-05-22T01:10:12.170Z,2.10
2019-05-22T01:12:44.191Z,2.23
2019-05-22T01:15:15.683Z,2.13
2019-05-22T01:17:47.310Z,2.57
2019-05-22T01:20:19.004Z,2.23
2019-05-22T01:22:49.931Z,2.10
2019-05-22T01:25:24.522Z,2.17
2019-05-22T01:27:55.591Z,2.33
2019-05-22T01:30:43.246Z,2.53
2019-05-22T01:33:17.209Z,2.30
2019-05-22T01:36:09.242Z,2.70
2019-05-22T01:38:40.448Z,2.60
2019-05-22T01:41:16.221Z,2.53
2019-05-22T01:43:48.624Z,2.63
2019-05-22T01:46:19.018Z,3.00
2019-05-22T01:48:50.776Z,2.77
2019-05-22T01:51:20.740Z,2.90
2019-05-22T01:53:51.895Z,2.63
2019-05-22T01:56:21.717Z,3.33
2019-05-22T01:58:52.364Z,3.10
2019-05-22T02:01:23.737Z,3.80
2019-05-22T02:03:56.826Z,3.50
2019-05-22T02:06:27.113Z,3.50
2019-05-22T02:09:08.379Z,3.33
2019-05-22T02:11:39.392Z,3.03
2019-05-22T02:14:14.228Z,2.90
2019-05-22T02:16:56.547Z,3.10
2019-05-22T02:19:20.344Z,2.90
2019-05-22T02:21:50.461Z,2.80
2019-05-22T02:24:22.197Z,3.07
2019-05-22T02:26:52.742Z,3.20
2019-05-22T02:29:24.027Z,2.93
2019-05-22T02:31:56.106Z,2.70
2019-05-22T02:34:26.378Z,2.37
2019-05-22T02:36:57.740Z,2.93
2019-05-22T02:39:32.822Z,2.70
2019-05-22T02:42:13.180Z,2.90
2019-05-22T02:44:45.227Z,3.13
2019-05-22T02:47:19.577Z,3.30
2019-05-22T02:49:49.277Z,3.30
2019-05-22T02:52:20.348Z,3.10
2019-05-22T02:54:50.252Z,2.60
2019-05-22T02:57:20.617Z,2.83
2019-05-22T02:59:50.839Z,3.30
2019-05-22T03:02:21.452Z,2.67
2019-05-22T03:05:11.680Z,2.83
2019-05-22T03:07:42.042Z,3.03
2019-05-22T03:10:15.939Z,2.73
2019-05-22T03:12:48.671Z,2.60
2019-05-22T03:15:19.976Z,2.43
2019-05-22T03:17:52.076Z,2.40
2019-05-22T03:20:23.948Z,2.70
2019-05-22T03:23:37.881Z,2.60
2019-05-22T03:26:09.224Z,2.90
2019-05-22T03:28:42.299Z,2.30
2019-05-22T03:31:12.931Z,2.50
2019-05-22T03:33:44.632Z,2.73
2019-05-22T03:36:21.241Z,2.70
2019-05-22T03:38:51.953Z,2.80
2019-05-22T03:41:23.010Z,2.70
2019-05-22T03:43:53.306Z,2.50
2019-05-22T03:46:34.295Z,2.60
2019-05-22T03:49:05.546Z,2.60
2019-05-22T03:51:36.242Z,2.37
2019-05-22T03:54:06.588Z,2.50
2019-05-22T03:56:41.022Z,2.40
2019-05-22T03:59:11.280Z,2.40
2019-05-22T04:01:41.001Z,2.63
2019-05-22T04:04:11.212Z,2.77
2019-05-22T04:06:41.377Z,2.83
2019-05-22T04:09:25.586Z,2.83
2019-05-22T04:11:55.977Z,2.37
2019-05-22T04:14:35.596Z,2.50
2019-05-22T04:17:07.249Z,3.37
2019-05-22T04:19:48.350Z,3.30
2019-05-22T04:22:09.408Z,2.90
2019-05-22T04:24:40.982Z,3.00
2019-05-22T04:27:11.932Z,2.87
2019-05-22T04:29:42.963Z,3.03
2019-05-22T04:32:35.456Z,3.53
2019-05-22T04:35:09.342Z,5.43
2019-05-22T04:37:38.767Z,6.87
2019-05-22T04:40:53.269Z,6.53
2019-05-22T04:43:28.637Z,6.77
2019-05-22T04:45:59.284Z,5.23
2019-05-22T04:48:31.474Z,3.73
2019-05-22T04:51:03.567Z,3.37
2019-05-22T04:53:32.945Z,3.37
2019-05-22T04:56:02.519Z,3.63
2019-05-22T04:58:33.794Z,3.27
2019-05-22T05:01:03.205Z,2.90
2019-05-22T05:03:32.899Z,3.13
2019-05-22T05:06:05.991Z,2.27
2019-05-22T05:08:33.767Z,2.67
2019-05-22T05:11:05.382Z,2.80
2019-05-22T05:13:34.913Z,3.00
2019-05-22T05:16:04.823Z,3.53
2019-05-22T05:18:35.287Z,2.90
2019-05-22T05:21:05.694Z,3.50
2019-05-22T05:23:35.306Z,3.67
2019-05-22T05:26:05.215Z,3.63
2019-05-22T05:28:34.930Z,3.47
2019-05-22T05:31:04.954Z,3.97
2019-05-22T05:33:41.199Z,4.07
2019-05-22T05:36:12.923Z,4.30
2019-05-22T05:38:42.378Z,4.77
2019-05-22T05:41:12.215Z,4.67
2019-05-22T05:43:41.805Z,4.10
2019-05-22T05:46:11.794Z,4.90
2019-05-22T05:48:42.077Z,5.20
2019-05-22T05:51:30.293Z,4.67
2019-05-22T05:54:05.771Z,5.47
2019-05-22T05:56:37.629Z,6.50
2019-05-22T05:59:08.273Z,6.37
2019-05-22T06:01:40.583Z,5.93
2019-05-22T06:04:12.501Z,5.43
2019-05-22T06:07:21.006Z,5.73
2019-05-22T06:10:29.513Z,6.70
2019-05-22T06:13:00.439Z,5.20
2019-05-22T06:15:46.460Z,4.30
2019-05-22T06:18:35.595Z,4.20
2019-05-22T06:21:07.364Z,5.07
2019-05-22T06:24:14.372Z,4.60
2019-05-22T06:27:11.441Z,4.43
2019-05-22T06:30:07.267Z,4.50
2019-05-22T06:33:36.534Z,4.60
2019-05-22T06:36:12.239Z,4.27
2019-05-22T06:39:17.352Z,3.80
2019-05-22T06:41:48.711Z,3.37
2019-05-22T06:44:36.138Z,3.20
2019-05-22T06:47:09.287Z,3.53
2019-05-22T06:49:44.275Z,3.20
2019-05-22T06:52:14.492Z,2.90
2019-05-22T06:54:44.591Z,2.90
2019-05-22T06:57:17.081Z,2.60
2019-05-22T06:59:47.671Z,2.50
2019-05-22T07:02:19.066Z,2.67
2019-05-22T07:04:49.864Z,2.40
2019-05-22T07:07:21.996Z,2.20
2019-05-22T07:09:51.959Z,2.00
2019-05-22T07:12:24.172Z,2.00
2019-05-22T07:15:38.151Z,2.20
2019-05-22T07:18:12.461Z,2.17
2019-05-22T07:20:42.058Z,2.37
2019-05-22T07:23:25.329Z,2.10
2019-05-22T07:25:56.085Z,2.00
2019-05-22T07:28:26.805Z,1.97
2019-05-22T07:30:56.974Z,2.30
2019-05-22T07:33:26.591Z,2.20
2019-05-22T07:36:09.243Z,2.47
2019-05-22T07:38:28.231Z,1.90
2019-05-22T07:40:58.324Z,2.20
2019-05-22T07:43:28.671Z,2.03
2019-05-22T07:45:59.567Z,1.70
2019-05-22T07:48:31.000Z,2.30
2019-05-22T07:51:02.623Z,1.60
2019-05-22T07:53:32.277Z,2.10
2019-05-22T07:56:05.467Z,2.00
2019-05-22T07:58:36.003Z,1.73
2019-05-22T08:01:08.031Z,1.40
2019-05-22T08:03:38.317Z,1.80
2019-05-22T08:06:08.499Z,1.80
2019-05-22T08:08:39.922Z,1.70
2019-05-22T08:11:10.584Z,1.80
2019-05-22T08:13:41.748Z,1.70
2019-05-22T08:16:12.155Z,1.60
2019-05-22T08:18:42.982Z,1.90
2019-05-22T08:21:12.715Z,1.63
2019-05-22T08:23:42.598Z,1.90
2019-05-22T08:26:14.185Z,1.80
2019-05-22T08:28:44.060Z,1.70
2019-05-22T08:31:15.709Z,2.03
2019-05-22T08:33:45.271Z,1.60
2019-05-22T08:36:15.821Z,1.40
2019-05-22T08:38:45.663Z,1.70
2019-05-22T08:41:18.033Z,1.83
2019-05-22T08:44:13.755Z,1.80
2019-05-22T08:46:20.030Z,1.60
2019-05-22T08:48:49.817Z,1.77
2019-05-22T08:51:19.437Z,1.60
2019-05-22T08:53:49.679Z,1.60
2019-05-22T08:56:19.821Z,1.60
2019-05-22T08:58:50.032Z,1.70
2019-05-22T09:01:20.305Z,1.93
2019-05-22T09:03:49.897Z,1.50
2019-05-22T09:06:19.459Z,1.60
2019-05-22T09:08:49.451Z,1.60
2019-05-22T09:11:18.953Z,1.70
2019-05-22T09:13:48.564Z,1.70
2019-05-22T09:16:18.442Z,1.80
2019-05-22T09:18:48.450Z,1.60
2019-05-22T09:21:18.318Z,2.00
2019-05-22T09:23:48.319Z,2.00
2019-05-22T09:26:18.496Z,1.50
2019-05-22T09:28:48.388Z,1.70
2019-05-22T09:31:19.200Z,1.70
2019-05-22T09:33:48.979Z,1.57
2019-05-22T09:36:18.771Z,1.60
2019-05-22T09:38:51.944Z,1.70
2019-05-22T09:41:19.513Z,1.47
2019-05-22T09:43:49.543Z,1.40
2019-05-22T09:46:19.286Z,1.50
2019-05-22T09:48:48.984Z,1.30
2019-05-22T09:51:18.716Z,1.60
2019-05-22T09:53:49.003Z,1.55
2019-05-22T09:56:19.279Z,1.47
2019-05-22T09:58:49.322Z,1.70
2019-05-22T10:01:19.227Z,1.55
2019-05-22T10:03:49.013Z,1.72
2019-05-22T10:06:21.776Z,1.87
2019-05-22T10:08:50.956Z,1.80
2019-05-22T10:11:21.402Z,1.95
2019-05-22T10:13:51.406Z,1.70
2019-05-22T10:16:20.894Z,1.67
2019-05-22T10:18:53.382Z,1.50
2019-05-22T10:21:23.295Z,1.80
2019-05-22T10:23:53.123Z,1.67
2019-05-22T10:26:23.240Z,1.55
2019-05-22T10:28:53.121Z,1.50
2019-05-22T10:31:23.685Z,1.65
2019-05-22T10:33:53.163Z,1.57
2019-05-22T10:36:22.878Z,1.55
2019-05-22T10:38:52.455Z,1.45
2019-05-22T10:41:22.119Z,1.60
2019-05-22T10:43:51.765Z,1.60
2019-05-22T10:46:21.135Z,1.60
2019-05-22T10:48:50.855Z,1.62
2019-05-22T10:51:20.841Z,1.87
2019-05-22T10:53:50.823Z,1.70
2019-05-22T10:56:20.629Z,1.60
2019-05-22T10:58:50.455Z,1.55
2019-05-22T11:01:19.988Z,1.70
2019-05-22T11:03:49.976Z,1.67
2019-05-22T11:06:19.716Z,1.40
2019-05-22T11:08:49.293Z,1.80
2019-05-22T11:11:18.726Z,1.45
2019-05-22T11:14:00.792Z,1.55
2019-05-22T11:16:21.784Z,1.60
2019-05-22T11:18:51.983Z,1.60
2019-05-22T11:21:21.647Z,1.75
2019-05-22T11:23:52.965Z,1.60
2019-05-22T11:26:23.215Z,1.55
2019-05-22T11:28:53.384Z,1.40
2019-05-22T11:31:23.578Z,1.60
2019-05-22T11:33:53.756Z,1.40
2019-05-22T11:36:24.144Z,1.50
2019-05-22T11:38:53.624Z,1.60
2019-05-22T11:41:23.625Z,1.30
2019-05-22T11:43:53.415Z,1.67
2019-05-22T11:46:23.225Z,1.47
2019-05-22T11:48:53.610Z,1.40
2019-05-22T11:51:23.520Z,1.67
2019-05-22T11:54:08.161Z,1.35
2019-05-22T11:56:25.045Z,1.37
2019-05-22T11:58:54.741Z,1.35
2019-05-22T12:01:25.088Z,1.67
2019-05-22T12:03:55.356Z,1.50
2019-05-22T12:06:25.283Z,1.22
2019-05-22T12:08:55.004Z,1.50
2019-05-22T12:11:25.857Z,1.50
2019-05-22T12:13:55.567Z,1.12
2019-05-22T12:16:25.797Z,1.47
2019-05-22T12:18:58.661Z,1.20
2019-05-22T12:21:27.425Z,1.45
2019-05-22T12:23:57.091Z,1.40
2019-05-22T12:26:27.086Z,1.25
2019-05-22T12:28:56.772Z,1.33
2019-05-22T12:31:26.898Z,1.30
2019-05-22T12:33:56.913Z,1.20
2019-05-22T12:36:28.416Z,1.13
2019-05-22T12:38:58.967Z,1.20
2019-05-22T12:41:30.199Z,1.30
2019-05-22T12:44:00.147Z,1.10
2019-05-22T12:46:31.058Z,1.30
2019-05-22T12:49:01.527Z,1.20
2019-05-22T12:51:32.319Z,1.10
2019-05-22T12:54:02.503Z,1.30
2019-05-22T12:56:32.707Z,1.33
2019-05-22T12:59:03.531Z,1.40
2019-05-22T13:01:34.718Z,1.20
2019-05-22T13:04:06.970Z,1.33
2019-05-22T13:06:36.832Z,1.50
2019-05-22T13:09:10.783Z,1.30
2019-05-22T13:11:41.951Z,1.40
2019-05-22T13:14:12.358Z,1.43
2019-05-22T13:16:48.394Z,1.50
2019-05-22T13:19:14.596Z,1.33
2019-05-22T13:21:46.344Z,1.50
2019-05-22T13:24:20.008Z,1.27
2019-05-22T13:26:51.290Z,1.50
2019-05-22T13:29:21.421Z,1.50
2019-05-22T13:31:52.581Z,1.60
2019-05-22T13:34:23.919Z,1.40
2019-05-22T13:36:56.875Z,1.30
2019-05-22T13:39:26.618Z,1.50
2019-05-22T13:41:56.446Z,1.33
2019-05-22T13:44:26.443Z,1.63
2019-05-22T13:46:56.518Z,1.60
2019-05-22T13:49:28.471Z,1.60
2019-05-22T13:51:58.384Z,1.63
2019-05-22T13:54:28.328Z,1.17
2019-05-22T13:56:57.945Z,1.57
2019-05-22T13:59:27.749Z,1.40
2019-05-22T14:01:58.098Z,1.63
2019-05-22T14:04:27.698Z,1.67
2019-05-22T14:06:57.676Z,1.50
2019-05-22T14:09:29.180Z,1.60
2019-05-22T14:11:59.096Z,1.70
2019-05-22T14:14:29.099Z,1.70
2019-05-22T14:16:59.026Z,1.47
2019-05-22T14:19:28.715Z,1.53
2019-05-22T14:21:58.429Z,1.43
2019-05-22T14:24:28.354Z,1.50
2019-05-22T14:26:58.273Z,1.70
2019-05-22T14:29:27.881Z,1.10
2019-05-22T14:31:57.631Z,1.40
2019-05-22T14:34:27.868Z,1.57
2019-05-22T14:36:58.286Z,1.23
2019-05-22T14:39:28.196Z,1.90
2019-05-22T14:41:57.862Z,2.23
2019-05-22T14:44:27.555Z,1.67
2019-05-22T14:47:11.847Z,2.20
2019-05-22T14:49:29.011Z,1.40
2019-05-22T14:51:58.609Z,1.70
2019-05-22T14:54:28.664Z,1.70
2019-05-22T14:56:58.539Z,1.60
2019-05-22T14:59:28.634Z,1.67
2019-05-22T15:01:58.638Z,2.80
2019-05-22T15:04:28.181Z,2.17
2019-05-22T15:06:57.997Z,2.47
2019-05-22T15:09:28.146Z,1.90
2019-05-22T15:11:58.528Z,2.30
2019-05-22T15:14:28.306Z,1.90
2019-05-22T15:16:57.725Z,1.80
2019-05-22T15:19:27.894Z,1.50
2019-05-22T15:21:58.434Z,1.50
2019-05-22T15:24:28.041Z,1.50
2019-05-22T15:26:57.779Z,1.40
2019-05-22T15:29:27.853Z,1.30
2019-05-22T15:31:58.020Z,1.50
2019-05-22T15:34:28.543Z,1.40
2019-05-22T15:36:59.413Z,1.80
2019-05-22T15:39:30.857Z,1.37
2019-05-22T15:42:01.851Z,1.80
2019-05-22T15:44:33.119Z,1.30
2019-05-22T15:47:02.879Z,1.57
2019-05-22T15:49:34.074Z,1.80
2019-05-22T15:52:09.139Z,1.70
2019-05-22T15:54:40.311Z,1.90
2019-05-22T15:57:11.948Z,1.70
2019-05-22T15:59:43.486Z,2.50
2019-05-22T16:02:16.322Z,2.13
2019-05-22T16:04:46.276Z,2.20
2019-05-22T16:07:17.431Z,2.00
2019-05-22T16:09:47.522Z,2.20
2019-05-22T16:12:18.495Z,2.00
2019-05-22T16:14:49.036Z,2.30
2019-05-22T16:17:20.756Z,3.10
2019-05-22T16:19:50.824Z,2.30
2019-05-22T16:22:20.494Z,5.90
2019-05-22T16:24:50.540Z,2.17
2019-05-22T16:27:20.627Z,8.00
2019-05-22T16:29:50.193Z,3.17
2019-05-22T16:32:22.069Z,2.53
2019-05-22T16:34:53.229Z,3.27
2019-05-22T16:37:23.287Z,2.20
2019-05-22T16:39:52.884Z,16.87
2019-05-22T16:42:23.241Z,3.33
2019-05-22T16:44:53.244Z,3.20
2019-05-22T16:47:24.327Z,3.20
2019-05-22T16:49:55.380Z,2.43
2019-05-22T16:52:27.056Z,3.77
2019-05-22T16:54:57.629Z,2.20
2019-05-22T16:57:27.591Z,2.10
2019-05-22T16:59:58.005Z,2.10
2019-05-22T17:02:28.293Z,2.53
2019-05-22T17:05:01.775Z,2.10
2019-05-22T17:07:29.487Z,8.43
2019-05-22T17:09:59.220Z,7.73
2019-05-22T17:12:30.299Z,3.60
2019-05-22T17:15:00.618Z,2.43
2019-05-22T17:17:30.287Z,4.53
2019-05-22T17:20:00.045Z,4.30
2019-05-22T17:22:29.799Z,4.13
2019-05-22T17:24:59.294Z,2.20
2019-05-22T17:27:30.079Z,4.60
2019-05-22T17:29:59.976Z,3.97
2019-05-22T17:32:31.431Z,2.40
2019-05-22T17:35:00.979Z,3.30
2019-05-22T17:37:33.839Z,4.10
2019-05-22T17:40:06.308Z,2.63
2019-05-22T17:42:37.312Z,2.00
2019-05-22T17:45:09.664Z,2.90
2019-05-22T17:47:40.085Z,2.10
2019-05-22T17:50:25.949Z,2.40
2019-05-22T17:52:43.841Z,2.00
2019-05-22T17:55:14.960Z,3.20
2019-05-22T17:57:45.315Z,2.57
2019-05-22T18:00:25.594Z,2.17
2019-05-22T18:02:55.119Z,2.27
2019-05-22T18:05:25.747Z,1.93
2019-05-22T18:07:56.302Z,2.03
2019-05-22T18:10:27.469Z,2.30
2019-05-22T18:12:56.936Z,2.23
2019-05-22T18:15:26.695Z,2.17
2019-05-22T18:17:57.350Z,1.80
2019-05-22T18:20:41.415Z,2.20
2019-05-22T18:22:59.165Z,2.37
2019-05-22T18:25:28.967Z,2.20
2019-05-22T18:27:59.073Z,2.40
2019-05-22T18:30:28.959Z,2.07
2019-05-22T18:32:58.606Z,2.27
2019-05-22T18:35:28.180Z,1.90
2019-05-22T18:37:58.281Z,2.43
2019-05-22T18:40:28.003Z,2.30
2019-05-22T18:42:57.471Z,1.90
2019-05-22T18:45:27.789Z,2.10
2019-05-22T18:47:57.524Z,2.17
2019-05-22T18:50:27.641Z,2.30
2019-05-22T18:52:57.173Z,2.30
2019-05-22T18:55:27.188Z,2.17
2019-05-22T18:57:56.914Z,2.20
2019-05-22T19:00:27.066Z,2.13
2019-05-22T19:02:57.027Z,2.50
2019-05-22T19:05:29.703Z,2.63
2019-05-22T19:07:59.442Z,2.20
2019-05-22T19:10:29.887Z,2.60
2019-05-22T19:13:00.228Z,2.20
2019-05-22T19:15:30.287Z,2.10
2019-05-22T19:18:00.020Z,2.00
2019-05-22T19:20:29.537Z,2.17
2019-05-22T19:23:01.590Z,2.27
2019-05-22T19:25:31.265Z,2.23
2019-05-22T19:28:00.894Z,1.70
2019-05-22T19:30:30.999Z,2.10
2019-05-22T19:33:00.857Z,2.23
2019-05-22T19:35:30.878Z,1.80
2019-05-22T19:38:00.839Z,2.23
2019-05-22T19:40:31.018Z,1.90
2019-05-22T19:43:00.881Z,2.00
2019-05-22T19:45:31.245Z,1.80
2019-05-22T19:48:01.848Z,1.93
2019-05-22T19:50:33.045Z,2.33
2019-05-22T19:53:18.326Z,2.37
2019-05-22T19:55:35.851Z,2.00
2019-05-22T19:58:05.777Z,1.90
2019-05-22T20:00:35.863Z,2.03
2019-05-22T20:03:06.125Z,1.90
2019-05-22T20:05:36.291Z,2.00
2019-05-22T20:08:07.219Z,2.10
2019-05-22T20:10:37.458Z,2.13
2019-05-22T20:13:08.004Z,1.70
2019-05-22T20:15:38.697Z,2.10
2019-05-22T20:18:08.611Z,1.43
2019-05-22T20:20:38.653Z,1.70
2019-05-22T20:23:09.287Z,1.53
2019-05-22T20:25:39.247Z,1.70
2019-05-22T20:28:10.223Z,1.60
2019-05-22T20:30:40.164Z,1.70
2019-05-22T20:33:10.244Z,1.70
2019-05-22T20:35:39.931Z,2.03
2019-05-22T20:38:10.322Z,1.80
2019-05-22T20:40:40.700Z,1.90
2019-05-22T20:43:10.784Z,1.60
2019-05-22T20:45:42.961Z,1.80
2019-05-22T20:48:17.472Z,1.87
2019-05-22T20:50:47.656Z,1.60
2019-05-22T20:53:19.825Z,1.70
2019-05-22T20:55:50.415Z,1.70
2019-05-22T20:58:21.038Z,2.00
2019-05-22T21:00:52.329Z,1.40
2019-05-22T21:03:23.131Z,1.73
2019-05-22T21:05:55.936Z,1.60
2019-05-22T21:08:26.731Z,1.50
2019-05-22T21:10:58.697Z,1.50
2019-05-22T21:13:28.304Z,1.60
2019-05-22T21:15:58.545Z,1.67
2019-05-22T21:18:34.638Z,1.60
2019-05-22T21:21:05.289Z,1.73
2019-05-22T21:23:35.708Z,1.60
2019-05-22T21:26:07.169Z,1.40
2019-05-22T21:28:37.287Z,1.40
2019-05-22T21:31:07.553Z,1.40
2019-05-22T21:33:37.165Z,1.30
2019-05-22T21:36:09.785Z,1.60
2019-05-22T21:38:40.401Z,1.60
2019-05-22T21:41:11.361Z,1.30
2019-05-22T21:43:40.838Z,1.40
2019-05-22T21:46:10.582Z,1.40
2019-05-22T21:48:40.999Z,1.60
2019-05-22T21:51:11.078Z,1.43
2019-05-22T21:53:41.405Z,1.57
2019-05-22T21:56:11.133Z,1.60
2019-05-22T21:58:40.960Z,1.50
2019-05-22T22:01:20.491Z,1.60
2019-05-22T22:04:06.285Z,1.33
2019-05-22T22:06:36.177Z,1.70
2019-05-22T22:09:07.676Z,1.63
2019-05-22T22:11:38.569Z,1.70
2019-05-22T22:14:09.043Z,1.70
2019-05-22T22:16:40.819Z,1.53
2019-05-22T22:19:11.674Z,2.00
2019-05-22T22:21:41.517Z,1.70
2019-05-22T22:24:11.790Z,1.50
2019-05-22T22:26:42.349Z,1.60
2019-05-22T22:29:12.533Z,1.50
2019-05-22T22:31:42.577Z,1.50
2019-05-22T22:34:23.268Z,1.60
2019-05-22T22:36:54.659Z,1.57
2019-05-22T22:39:24.471Z,1.40
2019-05-22T22:41:57.586Z,1.80
2019-05-22T22:44:29.029Z,1.50
2019-05-22T22:47:06.385Z,1.53
2019-05-22T22:49:37.992Z,1.77
2019-05-22T22:52:08.357Z,1.50
2019-05-22T22:54:38.653Z,1.70
2019-05-22T22:57:09.213Z,1.67
2019-05-22T22:59:38.720Z,1.50
2019-05-22T23:02:11.567Z,1.43
2019-05-22T23:04:42.899Z,1.50
2019-05-22T23:07:15.318Z,1.40
2019-05-22T23:09:45.339Z,1.40
2019-05-22T23:12:16.046Z,1.23
2019-05-22T23:14:50.591Z,1.63
2019-05-22T23:17:20.566Z,1.43
2019-05-22T23:19:49.723Z,1.50
2019-05-22T23:22:24.939Z,1.30
2019-05-22T23:24:57.445Z,1.40
2019-05-22T23:27:29.222Z,1.30
2019-05-22T23:29:59.856Z,1.40
2019-05-22T23:32:31.152Z,1.60
2019-05-22T23:35:02.077Z,1.40
2019-05-22T23:37:31.824Z,1.67
2019-05-22T23:40:01.622Z,1.40
2019-05-22T23:42:35.100Z,1.40
2019-05-22T23:45:08.243Z,1.40
2019-05-22T23:47:58.753Z,1.63
2019-05-22T23:50:29.546Z,1.70
2019-05-22T23:52:59.621Z,1.57
2019-05-22T23:55:30.455Z,1.60
2019-05-22T23:58:00.163Z,1.60
